Time;durP1;ratioP1;P1;durP2;ratioP2;P2;SDS_P1;SDS_P2;PMS_P1;PMS_P2;Temp;Humidity;BMP_temperature;BMP_pressure;BME280_temperature;BME280_humidity;BME280_pressure;Samples;Min_cycle;Max_cycle;Signal;HPM_P1;HPM_P2
2022/07/26 00:01:58;;;;;;;4.82;1.48;;;;;;;23.08;46.51;101263.47;5100414;28;20048;-63
2022/07/26 00:04:26;;;;;;;5.15;1.65;;;;;;;23.08;46.61;101272.50;5098219;28;20071;-61
2022/07/26 00:06:54;;;;;;;4.47;1.35;;;;;;;23.02;46.53;101265.47;5101413;28;20059;-62
2022/07/26 00:09:22;;;;;;;4.28;1.58;;;;;;;23.04;46.93;101268.72;5103888;28;20040;-62
2022/07/26 00:11:50;;;;;;;7.50;1.75;;;;;;;23.03;46.86;101272.56;5102035;28;20499;-63
2022/07/26 00:14:18;;;;;;;6.32;1.58;;;;;;;23.00;46.92;101273.16;5092340;28;20040;-62
2022/07/26 00:16:47;;;;;;;3.67;1.27;;;;;;;22.97;47.14;101280.06;5098457;28;20354;-62
2022/07/26 00:19:15;;;;;;;4.72;1.20;;;;;;;22.96;46.89;101275.69;5098431;28;20044;-62
2022/07/26 00:21:43;;;;;;;3.05;1.70;;;;;;;22.93;47.09;101275.44;5096292;28;20048;-62
2022/07/26 00:24:11;;;;;;;5.05;1.70;;;;;;;22.91;47.40;101270.25;5095188;28;20048;-61
2022/07/26 00:26:38;;;;;;;4.03;1.42;;;;;;;22.90;47.27;101274.13;5096533;28;20048;-61
2022/07/26 00:29:06;;;;;;;6.13;1.67;;;;;;;22.89;47.15;101277.16;5103102;28;20051;-61
2022/07/26 00:31:35;;;;;;;4.85;1.98;;;;;;;22.86;47.28;101277.72;5101994;28;20063;-62
2022/07/26 00:34:04;;;;;;;7.40;2.60;;;;;;;22.80;47.27;101278.91;5086304;28;20144;-61
2022/07/26 00:36:31;;;;;;;4.93;1.50;;;;;;;22.85;47.53;101282.41;5094829;28;20055;-62
2022/07/26 00:39:00;;;;;;;6.65;1.55;;;;;;;22.83;47.27;101281.06;5102562;28;20040;-62
2022/07/26 00:41:28;;;;;;;8.63;1.75;;;;;;;22.82;47.59;101288.47;5101719;28;20082;-62
2022/07/26 00:43:57;;;;;;;7.78;2.10;;;;;;;22.81;47.55;101280.53;5097920;28;20432;-62
2022/07/26 00:46:25;;;;;;;5.50;2.13;;;;;;;22.79;47.80;101275.34;5100455;28;20036;-62
2022/07/26 00:48:54;;;;;;;4.80;1.42;;;;;;;22.79;47.73;101275.34;5094277;28;20040;-62
2022/07/26 00:51:23;;;;;;;6.20;2.38;;;;;;;22.77;47.33;101279.47;5101679;28;20048;-62
2022/07/26 00:53:51;;;;;;;4.32;1.75;;;;;;;22.77;47.70;101274.78;5100756;28;20044;-62
2022/07/26 00:56:19;;;;;;;5.35;1.65;;;;;;;22.77;47.79;101284.94;5093952;28;20070;-63
2022/07/26 00:58:47;;;;;;;7.10;2.63;;;;;;;22.76;47.58;101284.13;5100781;28;20410;-62
2022/07/26 01:01:15;;;;;;;4.68;1.50;;;;;;;22.75;47.87;101279.75;5102090;28;20044;-63
2022/07/26 01:03:42;;;;;;;3.83;1.38;;;;;;;22.73;47.66;101277.31;5101852;28;20060;-64
2022/07/26 01:06:10;;;;;;;6.15;1.65;;;;;;;22.73;47.82;101285.53;5098782;28;20048;-63
2022/07/26 01:08:40;;;;;;;6.13;1.92;;;;;;;22.71;48.01;101276.78;5102985;28;20465;-62
2022/07/26 01:11:07;;;;;;;5.40;1.67;;;;;;;22.66;47.98;101268.63;5096291;28;20106;-62
2022/07/26 01:13:35;;;;;;;4.13;1.70;;;;;;;22.67;47.95;101281.22;5098678;28;20063;-62
2022/07/26 01:16:03;;;;;;;6.45;1.77;;;;;;;22.67;48.04;101278.47;5108723;28;20517;-62
2022/07/26 01:18:31;;;;;;;4.70;1.95;;;;;;;22.65;48.19;101283.44;5100093;28;20072;-63
2022/07/26 01:21:02;;;;;;;7.68;2.33;;;;;;;22.66;47.98;101276.03;5102119;28;20048;-62
2022/07/26 01:23:42;;;;;;;9.25;2.08;;;;;;;22.64;47.78;101270.03;5091635;28;20079;-62
2022/07/26 01:26:10;;;;;;;3.88;1.75;;;;;;;22.62;48.05;101269.50;5098385;28;20052;-62
2022/07/26 01:28:41;;;;;;;5.75;2.20;;;;;;;22.57;48.56;101267.63;5093401;28;20048;-63
2022/07/26 01:31:08;;;;;;;7.40;1.98;;;;;;;22.59;48.55;101270.91;5086829;28;20040;-62
2022/07/26 01:33:36;;;;;;;4.25;1.90;;;;;;;22.57;48.33;101261.34;5099344;28;20048;-63
2022/07/26 01:36:05;;;;;;;3.60;1.60;;;;;;;22.55;48.40;101263.56;5092693;28;20044;-62
2022/07/26 01:38:33;;;;;;;3.70;1.55;;;;;;;22.53;48.53;101261.13;5094722;28;20075;-62
2022/07/26 01:41:02;;;;;;;4.38;1.70;;;;;;;22.51;48.96;101254.31;5100224;28;20378;-62
2022/07/26 01:43:29;;;;;;;7.20;1.90;;;;;;;22.50;48.71;101256.25;5089463;28;20513;-62
2022/07/26 01:45:58;;;;;;;6.65;2.05;;;;;;;22.44;48.89;101251.94;5101636;28;20048;-62
2022/07/26 01:48:26;;;;;;;4.40;1.77;;;;;;;22.48;49.06;101266.69;5102339;28;20099;-62
2022/07/26 01:50:54;;;;;;;5.22;1.65;;;;;;;22.48;48.96;101260.38;5106415;28;20067;-62
2022/07/26 01:53:22;;;;;;;6.47;2.33;;;;;;;22.45;49.01;101261.78;5094570;28;20045;-62
2022/07/26 01:55:49;;;;;;;6.80;1.65;;;;;;;22.45;49.00;101272.72;5099095;28;20048;-61
2022/07/26 01:58:19;;;;;;;5.13;1.70;;;;;;;22.43;49.61;101266.72;5103638;28;20048;-62
2022/07/26 02:00:46;;;;;;;7.75;1.92;;;;;;;22.42;49.56;101272.50;5106617;28;20048;-63
2022/07/26 02:03:14;;;;;;;6.25;1.80;;;;;;;22.31;49.44;101252.63;5102473;28;20083;-62
2022/07/26 02:05:42;;;;;;;8.77;2.45;;;;;;;22.40;49.45;101272.78;5098361;28;20075;-62
2022/07/26 02:08:11;;;;;;;6.00;2.38;;;;;;;22.38;49.38;101280.47;5102316;28;20048;-62
2022/07/26 02:13:26;;;;;;;8.00;1.98;;;;;;;22.36;49.76;101279.94;5090326;28;20072;-62
2022/07/26 02:15:54;;;;;;;7.95;2.33;;;;;;;22.00;49.61;101225.53;5101478;28;20083;-66
2022/07/26 02:18:22;;;;;;;9.98;2.60;;;;;;;22.33;49.79;101280.53;5109053;28;20048;-62
2022/07/26 02:20:50;;;;;;;5.82;2.00;;;;;;;22.31;49.95;101283.56;5105198;28;20063;-62
2022/07/26 02:23:17;;;;;;;6.47;2.00;;;;;;;22.29;49.67;101288.50;5098850;28;20048;-62
2022/07/26 02:25:45;;;;;;;7.03;2.30;;;;;;;22.29;49.73;101283.03;5105793;28;20083;-62
2022/07/26 02:28:15;;;;;;;6.80;2.08;;;;;;;22.27;49.88;101287.16;5097167;28;20105;-61
2022/07/26 02:30:45;;;;;;;8.75;2.55;;;;;;;22.27;49.78;101279.78;5098809;28;20064;-62
2022/07/26 02:33:13;;;;;;;7.00;2.70;;;;;;;22.26;49.81;101289.09;5101189;28;20055;-62
2022/07/26 02:35:41;;;;;;;5.75;1.75;;;;;;;22.26;49.85;101283.63;5099734;28;20052;-63
2022/07/26 02:38:11;;;;;;;7.47;2.45;;;;;;;22.26;49.94;101289.09;5103687;28;20080;-63
2022/07/26 02:40:39;;;;;;;6.88;2.15;;;;;;;22.26;50.05;101291.00;5104995;28;20052;-62
2022/07/26 02:43:08;;;;;;;7.70;2.03;;;;;;;22.24;50.04;101293.22;5092147;28;20048;-63
2022/07/26 02:45:36;;;;;;;6.55;2.58;;;;;;;22.24;50.00;101285.81;5103610;28;20048;-62
2022/07/26 02:48:06;;;;;;;6.75;2.55;;;;;;;22.23;50.02;101297.88;5102258;28;20493;-62
2022/07/26 02:50:34;;;;;;;7.50;2.25;;;;;;;22.19;50.16;101287.81;5103246;28;20051;-62
2022/07/26 02:53:02;;;;;;;7.45;2.17;;;;;;;22.20;50.09;101301.19;5093872;28;20052;-62
2022/07/26 02:55:29;;;;;;;8.18;2.33;;;;;;;22.21;50.26;101300.09;5092864;28;20048;-62
2022/07/26 02:57:57;;;;;;;6.18;2.33;;;;;;;22.20;50.40;101303.94;5094380;28;20048;-62
2022/07/26 03:00:26;;;;;;;5.30;1.92;;;;;;;22.20;50.61;101303.13;5094908;28;20055;-62
2022/07/26 03:02:54;;;;;;;10.60;2.70;;;;;;;22.18;50.45;101303.41;5096290;28;20051;-63
2022/07/26 03:05:23;;;;;;;7.07;2.60;;;;;;;22.17;50.38;101301.78;5105088;28;20067;-62
2022/07/26 03:07:51;;;;;;;8.70;2.88;;;;;;;22.13;50.57;101294.44;5101250;28;20097;-63
2022/07/26 03:10:19;;;;;;;8.45;2.63;;;;;;;22.17;50.36;101304.50;5098851;28;20056;-63
2022/07/26 03:12:47;;;;;;;8.75;2.25;;;;;;;22.15;50.87;101306.72;5099432;28;20048;-63
2022/07/26 03:15:15;;;;;;;9.82;2.92;;;;;;;22.15;50.71;101314.13;5100425;28;20048;-62
2022/07/26 03:17:42;;;;;;;10.70;2.50;;;;;;;22.13;50.80;101317.16;5092643;28;20079;-62
2022/07/26 03:20:12;;;;;;;8.25;2.65;;;;;;;22.11;50.88;101319.34;5089302;28;20075;-63
2022/07/26 03:22:41;;;;;;;6.38;2.30;;;;;;;22.11;50.82;101321.28;5097783;28;20060;-62
2022/07/26 03:25:09;;;;;;;12.43;2.80;;;;;;;22.10;50.90;101325.13;5095646;28;20048;-62
2022/07/26 03:27:36;;;;;;;6.80;2.83;;;;;;;22.07;50.97;101319.13;5095548;28;20043;-62
2022/07/26 03:30:05;;;;;;;8.35;2.60;;;;;;;22.07;51.09;101323.78;5103772;28;20059;-62
2022/07/26 03:32:33;;;;;;;7.75;2.33;;;;;;;22.07;51.26;101334.72;5092918;28;20052;-62
2022/07/26 03:35:01;;;;;;;6.15;2.17;;;;;;;22.05;51.13;101329.53;5094656;28;20071;-62
2022/07/26 03:37:28;;;;;;;11.05;2.65;;;;;;;22.03;51.26;101328.19;5099199;28;20109;-62
2022/07/26 03:40:15;;;;;;;7.88;2.83;;;;;;;22.03;51.18;101330.91;5098508;28;20477;-62
2022/07/26 03:42:43;;;;;;;8.75;3.58;;;;;;;22.02;51.13;101329.28;5101653;28;20048;-62
2022/07/26 03:45:11;;;;;;;7.97;2.30;;;;;;;22.01;51.27;101335.84;5097831;28;20568;-61
2022/07/26 03:47:40;;;;;;;7.90;2.65;;;;;;;22.00;51.42;101332.28;5098576;28;20055;-62
2022/07/26 03:50:08;;;;;;;7.43;2.72;;;;;;;21.95;51.50;101335.06;5097601;28;20079;-62
2022/07/26 03:52:36;;;;;;;9.52;2.90;;;;;;;21.96;51.72;101338.63;5098994;28;20048;-62
2022/07/26 03:56:27;;;;;;;6.60;2.58;;;;;;;21.95;51.66;101346.00;5105352;28;20048;-63
2022/07/26 03:57:52;;;;;;;8.80;2.35;;;;;;;21.94;51.81;101349.84;5093029;28;20225;-61
2022/07/26 04:00:20;;;;;;;8.13;2.45;;;;;;;21.92;51.81;101349.31;5100814;28;20055;-62
2022/07/26 04:02:48;;;;;;;7.03;2.45;;;;;;;21.91;52.16;101346.88;5094486;28;20066;-62
2022/07/26 04:05:16;;;;;;;8.48;2.45;;;;;;;21.91;51.81;101344.13;5103375;28;20052;-62
2022/07/26 04:07:49;;;;;;;8.52;3.17;;;;;;;21.90;52.03;101353.44;5092847;28;20101;-62
2022/07/26 04:10:21;;;;;;;10.45;3.17;;;;;;;21.89;51.92;101346.31;5101602;28;20048;-62
2022/07/26 04:12:48;;;;;;;10.80;3.15;;;;;;;21.89;51.75;101355.34;5099760;28;20115;-62
2022/07/26 04:15:19;;;;;;;9.48;2.83;;;;;;;21.87;52.24;101349.34;5088335;28;20052;-61
2022/07/26 04:17:48;;;;;;;10.30;3.83;;;;;;;21.85;52.19;101343.34;5100649;28;20052;-61
2022/07/26 04:20:16;;;;;;;8.68;3.15;;;;;;;21.85;51.85;101354.28;5091351;28;20055;-61
2022/07/26 04:22:43;;;;;;;7.05;2.70;;;;;;;21.85;52.15;101350.75;5095589;28;20052;-61
2022/07/26 04:25:11;;;;;;;10.40;2.75;;;;;;;21.82;52.17;101357.59;5094059;28;20046;-62
2022/07/26 04:27:39;;;;;;;14.93;2.97;;;;;;;21.84;52.25;101362.78;5095570;28;20073;-62
2022/07/26 04:30:08;;;;;;;10.18;3.40;;;;;;;21.83;52.64;101364.72;5096719;28;20040;-62
2022/07/26 04:32:43;;;;;;;10.75;2.90;;;;;;;21.82;52.23;101368.53;5095706;28;20079;-62
2022/07/26 04:35:14;;;;;;;8.48;2.67;;;;;;;21.82;52.53;101359.50;5101448;28;20063;-62
2022/07/26 04:37:42;;;;;;;8.75;3.20;;;;;;;21.82;52.37;101365.00;5090302;28;20078;-63
2022/07/26 04:40:12;;;;;;;9.73;3.17;;;;;;;21.80;52.41;101368.00;5098075;28;20041;-62
2022/07/26 04:42:41;;;;;;;11.18;2.50;;;;;;;21.80;52.53;101370.75;5085952;28;20231;-62
2022/07/26 04:45:11;;;;;;;7.10;2.72;;;;;;;21.80;52.41;101365.28;5094998;28;20075;-62
2022/07/26 04:47:41;;;;;;;9.18;2.60;;;;;;;21.80;52.38;101368.00;5098318;28;20078;-62
2022/07/26 04:50:11;;;;;;;8.82;3.10;;;;;;;21.75;52.24;101368.03;5091676;28;20063;-63
2022/07/26 04:52:40;;;;;;;6.95;2.78;;;;;;;21.78;52.59;101367.47;5101951;28;20085;-63
2022/07/26 04:55:09;;;;;;;12.15;3.10;;;;;;;21.78;52.70;101372.94;5090360;28;20087;-63
2022/07/26 04:57:37;;;;;;;13.02;3.65;;;;;;;21.75;52.40;101374.34;5101507;28;20080;-61
2022/07/26 05:00:07;;;;;;;9.77;3.42;;;;;;;21.76;52.76;101378.72;5099607;28;20067;-61
2022/07/26 05:02:53;;;;;;;8.02;2.47;;;;;;;21.76;52.77;101380.63;5100302;28;20060;-62
2022/07/26 05:05:23;;;;;;;11.23;2.83;;;;;;;21.75;52.72;101373.53;5100078;28;20056;-62
2022/07/26 05:07:53;;;;;;;11.80;3.33;;;;;;;21.73;52.72;101371.06;5101947;28;20082;-63
2022/07/26 05:10:23;;;;;;;10.82;3.05;;;;;;;21.73;52.92;101370.25;5100204;28;20040;-62
2022/07/26 05:12:51;;;;;;;9.07;3.85;;;;;;;21.73;52.83;101378.47;5095157;28;20055;-62
2022/07/26 05:15:18;;;;;;;11.45;3.35;;;;;;;21.72;52.85;101383.09;5098534;28;20086;-62
2022/07/26 05:17:47;;;;;;;11.20;3.40;;;;;;;21.71;53.14;101377.91;5101821;28;20120;-62
2022/07/26 05:20:16;;;;;;;14.55;3.65;;;;;;;21.71;52.90;101384.22;5098480;28;20044;-62
2022/07/26 05:22:45;;;;;;;10.38;2.95;;;;;;;21.71;52.84;101392.41;5102361;28;20040;-65
2022/07/26 05:25:13;;;;;;;9.82;3.00;;;;;;;21.70;52.81;101393.53;5107107;28;20098;-62
2022/07/26 05:27:41;;;;;;;7.93;3.00;;;;;;;21.70;53.09;101393.53;5109797;28;20052;-62
2022/07/26 05:30:10;;;;;;;10.43;2.90;;;;;;;21.71;52.90;101406.09;5117451;28;20040;-63
2022/07/26 05:32:38;;;;;;;11.32;3.40;;;;;;;21.73;53.37;101408.56;5100960;28;20075;-63
2022/07/26 05:35:07;;;;;;;9.82;3.00;;;;;;;21.73;52.98;101408.56;5104437;28;20048;-63
2022/07/26 05:37:36;;;;;;;10.10;2.78;;;;;;;21.73;52.73;101400.34;5112590;28;20051;-63
2022/07/26 05:40:06;;;;;;;8.77;3.45;;;;;;;21.74;52.63;101401.97;5101839;28;20046;-64
2022/07/26 05:42:34;;;;;;;7.60;2.67;;;;;;;21.75;52.48;101406.34;5103600;28;20055;-63
2022/07/26 05:45:02;;;;;;;9.55;3.28;;;;;;;21.81;52.85;101412.63;5102215;28;20104;-63
2022/07/26 05:47:30;;;;;;;9.18;3.53;;;;;;;21.81;52.44;101412.63;4743135;28;10000462;-63
2022/07/26 05:49:58;;;;;;;7.20;2.78;;;;;;;21.80;52.59;101409.06;5095822;28;20637;-63
2022/07/26 05:52:25;;;;;;;10.40;2.50;;;;;;;21.79;52.43;101415.63;5100436;28;20044;-63
2022/07/26 05:54:53;;;;;;;6.50;2.13;;;;;;;21.81;52.50;101420.81;5098811;28;20072;-63
2022/07/26 05:57:22;;;;;;;9.60;2.70;;;;;;;21.81;52.55;101427.09;5102709;28;20089;-63
2022/07/26 05:59:50;;;;;;;10.35;2.80;;;;;;;21.81;52.64;101426.28;5122579;28;20476;-64
2022/07/26 06:02:18;;;;;;;8.05;2.92;;;;;;;21.76;52.83;101421.66;5100135;28;20056;-63
2022/07/26 06:04:46;;;;;;;10.20;3.35;;;;;;;21.79;52.78;101426.56;5098451;28;20075;-64
2022/07/26 06:07:14;;;;;;;8.73;2.75;;;;;;;21.76;53.01;101418.94;5102844;28;20052;-63
2022/07/26 06:09:42;;;;;;;8.88;2.65;;;;;;;21.75;54.07;101418.13;5105066;28;20397;-63
2022/07/26 06:12:10;;;;;;;9.82;3.30;;;;;;;21.76;53.70;101432.63;5106623;28;20048;-63
2022/07/26 06:14:39;;;;;;;9.90;2.60;;;;;;;21.74;53.53;101430.16;5103401;28;20060;-63
2022/07/26 06:17:07;;;;;;;8.65;2.30;;;;;;;21.75;53.66;101439.19;5096838;28;20048;-63
2022/07/26 06:19:35;;;;;;;11.00;3.28;;;;;;;21.73;53.52;101430.44;5105376;28;20060;-63
2022/07/26 06:22:03;;;;;;;11.07;3.60;;;;;;;21.73;53.71;101431.25;5105305;28;20286;-64
2022/07/26 06:24:31;;;;;;;7.28;2.42;;;;;;;21.75;53.46;101437.25;5105239;28;20484;-64
2022/07/26 06:26:59;;;;;;;10.25;3.08;;;;;;;21.76;53.31;101441.63;5106455;28;20048;-64
2022/07/26 06:29:32;;;;;;;8.52;3.03;;;;;;;21.78;53.36;101449.56;5091347;28;20080;-63
2022/07/26 06:32:01;;;;;;;8.60;2.58;;;;;;;21.81;53.45;101448.19;5102575;28;20051;-64
2022/07/26 06:34:29;;;;;;;10.52;3.53;;;;;;;21.79;53.57;101440.25;5097394;28;20040;-64
2022/07/26 06:36:57;;;;;;;11.48;2.58;;;;;;;21.85;53.44;101450.06;5106828;28;20516;-64
2022/07/26 06:39:25;;;;;;;6.25;2.40;;;;;;;21.87;53.57;101442.41;5104210;28;20090;-63
2022/07/26 06:41:53;;;;;;;9.05;2.58;;;;;;;21.90;53.46;101450.03;5097390;28;20048;-63
2022/07/26 06:44:21;;;;;;;9.65;2.67;;;;;;;21.92;53.46;101449.75;5106789;28;20052;-63
2022/07/26 06:46:49;;;;;;;5.70;2.67;;;;;;;21.92;53.40;101450.56;5116825;28;20085;-63
2022/07/26 06:49:19;;;;;;;7.80;2.65;;;;;;;21.93;53.38;101449.47;5103013;28;20083;-64
2022/07/26 06:51:50;;;;;;;9.38;2.50;;;;;;;21.95;53.49;101451.94;5097286;28;20044;-63
2022/07/26 06:54:17;;;;;;;8.07;2.80;;;;;;;21.96;53.41;101459.03;5095564;28;20056;-63
2022/07/26 06:56:45;;;;;;;8.40;2.63;;;;;;;21.95;53.46;101460.97;5098485;28;20439;-63
2022/07/26 06:59:13;;;;;;;8.80;3.20;;;;;;;21.94;53.38;101453.03;5104646;28;20083;-63
2022/07/26 07:01:41;;;;;;;10.85;2.83;;;;;;;21.93;53.34;101457.69;5102779;28;20048;-63
2022/07/26 07:04:28;;;;;;;8.38;2.45;;;;;;;21.92;53.64;101467.00;5070581;28;20051;-62
2022/07/26 07:07:01;;;;;;;10.65;2.65;;;;;;;21.89;53.40;101456.63;5065895;28;20556;-62
2022/07/26 07:09:33;;;;;;;4.50;1.92;;;;;;;21.91;53.34;101465.38;5061980;28;20045;-63
2022/07/26 07:12:02;;;;;;;7.70;3.08;;;;;;;21.91;53.63;101459.06;5065145;28;20041;-62
2022/07/26 07:14:37;;;;;;;9.23;2.60;;;;;;;21.91;53.55;101461.81;5066317;28;20057;-63
2022/07/26 07:17:06;;;;;;;8.32;2.25;;;;;;;21.92;53.28;101467.00;5065466;28;20552;-63
2022/07/26 07:19:41;;;;;;;6.72;2.00;;;;;;;21.94;53.32;101463.97;5052317;28;20059;-64
2022/07/26 07:22:10;;;;;;;3.92;1.58;;;;;;;21.94;53.24;101475.75;5065262;28;20041;-64
2022/07/26 07:24:39;;;;;;;6.38;3.00;;;;;;;21.96;53.24;101475.47;5062499;28;20072;-63
2022/07/26 07:27:08;;;;;;;8.13;2.25;;;;;;;21.98;53.39;101476.81;5057845;28;20154;-63
2022/07/26 07:29:37;;;;;;;5.88;2.55;;;;;;;21.99;53.17;101483.94;5062688;28;20306;-64
2022/07/26 07:32:07;;;;;;;8.80;2.67;;;;;;;22.01;53.05;101481.72;5062586;28;20045;-63
2022/07/26 07:34:46;;;;;;;5.53;2.05;;;;;;;22.04;53.03;101477.63;5065297;28;20052;-63
2022/07/26 07:37:14;;;;;;;5.97;2.13;;;;;;;22.07;52.99;101474.34;5065038;28;20071;-63
2022/07/26 07:39:42;;;;;;;5.78;1.95;;;;;;;22.08;52.77;101478.72;5063810;28;20052;-63
2022/07/26 07:42:10;;;;;;;4.53;1.67;;;;;;;22.07;52.58;101479.81;5064366;28;20060;-63
2022/07/26 07:44:37;;;;;;;4.55;1.63;;;;;;;22.10;52.62;101481.16;5058107;28;20069;-63
2022/07/26 07:47:07;;;;;;;7.55;1.98;;;;;;;22.09;52.63;101485.81;5064868;28;20048;-63
2022/07/26 07:49:36;;;;;;;12.68;2.38;;;;;;;22.08;52.52;101479.53;5073372;28;20076;-63
2022/07/26 07:52:05;;;;;;;6.90;1.95;;;;;;;22.08;52.47;101485.00;5064053;28;20048;-64
2022/07/26 07:54:33;;;;;;;9.80;2.63;;;;;;;22.07;52.31;101483.38;5062788;28;20045;-64
2022/07/26 07:57:02;;;;;;;5.78;1.80;;;;;;;22.08;52.49;101487.75;5056608;28;20068;-62
2022/07/26 07:59:30;;;;;;;6.10;1.63;;;;;;;22.07;52.34;101479.81;5065054;28;20059;-63
2022/07/26 08:01:58;;;;;;;5.93;2.10;;;;;;;22.08;52.29;101489.66;5053436;28;20050;-63
2022/07/26 08:04:26;;;;;;;4.45;1.42;;;;;;;22.10;52.24;101484.72;5078839;28;20494;-64
2022/07/26 08:06:54;;;;;;;8.00;1.85;;;;;;;22.11;52.20;101488.28;5055777;28;20052;-62
2022/07/26 08:09:25;;;;;;;6.10;1.77;;;;;;;22.11;52.06;101489.09;5062718;28;20115;-64
2022/07/26 08:11:55;;;;;;;4.22;1.60;;;;;;;22.04;52.05;101483.09;5057238;28;20105;-64
2022/07/26 08:14:23;;;;;;;6.70;1.77;;;;;;;22.13;51.75;101488.81;5058228;28;20510;-63
2022/07/26 08:16:51;;;;;;;4.72;1.45;;;;;;;22.13;51.76;101497.03;5054533;28;20053;-63
2022/07/26 08:19:19;;;;;;;3.67;1.30;;;;;;;22.12;51.77;101490.72;5056602;28;20048;-63
2022/07/26 08:21:49;;;;;;;4.25;1.80;;;;;;;22.13;51.67;101486.88;5062601;28;20155;-64
2022/07/26 08:24:17;;;;;;;3.90;1.92;;;;;;;22.13;51.58;101488.81;5058163;28;20099;-63
2022/07/26 08:26:46;;;;;;;6.32;1.95;;;;;;;22.11;51.43;101499.22;5054327;28;20056;-62
2022/07/26 08:29:13;;;;;;;3.97;1.27;;;;;;;22.14;51.56;101494.00;5055677;28;20053;-64
2022/07/26 08:31:42;;;;;;;6.22;2.10;;;;;;;22.14;51.47;101499.47;5062337;28;20136;-64
2022/07/26 08:34:09;;;;;;;5.65;1.60;;;;;;;22.15;51.52;101500.28;5055243;28;20072;-64
2022/07/26 08:36:37;;;;;;;3.70;1.35;;;;;;;22.16;51.33;101505.50;5056390;28;20521;-64
2022/07/26 08:39:25;;;;;;;6.03;1.58;;;;;;;22.15;51.55;101517.53;5058542;28;20140;-63
2022/07/26 08:41:54;;;;;;;6.50;2.03;;;;;;;22.13;51.57;101514.25;5062637;28;20073;-63
2022/07/26 08:44:22;;;;;;;6.13;1.40;;;;;;;22.12;51.98;101522.75;5064886;28;20107;-63
2022/07/26 08:46:50;;;;;;;8.38;2.03;;;;;;;22.08;52.16;101536.19;5056278;28;20071;-63
2022/07/26 08:49:17;;;;;;;4.68;1.48;;;;;;;22.03;52.31;101525.28;5065244;28;20045;-62
2022/07/26 08:51:45;;;;;;;5.00;1.60;;;;;;;22.00;52.44;101528.53;5056961;28;20055;-63
2022/07/26 08:54:15;;;;;;;4.03;1.50;;;;;;;21.99;52.60;101532.38;5062777;28;20415;-63
2022/07/26 08:56:52;;;;;;;4.03;1.20;;;;;;;21.97;52.56;101532.66;5065497;28;20052;-63
2022/07/26 08:59:21;;;;;;;6.45;1.50;;;;;;;21.98;52.81;101534.28;5067360;28;20056;-62
2022/07/26 09:01:52;;;;;;;3.03;1.40;;;;;;;21.99;52.72;101540.59;5056055;28;20053;-63
2022/07/26 09:04:22;;;;;;;2.22;1.50;;;;;;;21.96;52.61;101541.16;5105051;28;20048;-63
2022/07/26 09:07:02;;;;;;;2.50;0.90;;;;;;;21.99;52.94;101549.63;5102856;28;20089;-63
2022/07/26 09:09:31;;;;;;;2.05;1.00;;;;;;;21.99;53.13;101546.88;5106205;28;20052;-63
2022/07/26 09:12:12;;;;;;;1.55;0.95;;;;;;;22.00;53.22;101553.19;5101932;28;20049;-63
2022/07/26 09:14:41;;;;;;;1.73;1.05;;;;;;;21.92;53.07;101538.16;5119758;28;20054;-63
2022/07/26 09:17:09;;;;;;;3.90;0.95;;;;;;;21.98;53.44;101550.72;5110426;28;20561;-63
2022/07/26 09:19:37;;;;;;;2.00;0.95;;;;;;;21.97;53.32;101551.81;5103759;28;20140;-63
2022/07/26 09:22:10;;;;;;;1.70;0.85;;;;;;;21.98;53.51;101555.38;5106070;28;20052;-63
2022/07/26 09:24:41;;;;;;;1.45;0.90;;;;;;;21.97;53.40;101556.47;5104123;28;20048;-63
2022/07/26 09:27:11;;;;;;;2.00;0.80;;;;;;;21.96;53.49;101555.66;5104948;28;20539;-65
2022/07/26 09:29:47;;;;;;;1.65;0.77;;;;;;;21.97;53.54;101561.94;5107967;28;20052;-63
2022/07/26 09:32:18;;;;;;;3.40;1.05;;;;;;;21.97;53.42;101565.50;5105111;28;20044;-63
2022/07/26 09:34:48;;;;;;;2.70;0.93;;;;;;;22.00;53.51;101567.69;5097471;28;20054;-63
2022/07/26 09:37:33;;;;;;;3.33;0.90;;;;;;;22.01;53.43;101558.38;5121427;28;20516;-63
2022/07/26 09:40:04;;;;;;;2.00;0.88;;;;;;;22.05;53.37;101556.75;5107472;28;20059;-63
2022/07/26 09:42:32;;;;;;;1.17;0.70;;;;;;;22.07;53.47;101554.53;5098503;28;20049;-63
2022/07/26 09:45:01;;;;;;;0.50;0.50;;;;;;;22.02;53.31;101540.06;5104575;28;20056;-62
2022/07/26 09:47:37;;;;;;;1.35;0.77;;;;;;;22.12;53.34;101547.41;5118150;28;20043;-64
2022/07/26 09:50:14;;;;;;;1.33;0.77;;;;;;;22.14;53.17;101553.41;5098160;28;20075;-63
2022/07/26 09:52:58;;;;;;;1.02;0.77;;;;;;;22.15;53.31;101566.81;5099310;28;20044;-63
2022/07/26 09:55:26;;;;;;;1.35;0.80;;;;;;;22.16;53.26;101573.13;5095446;28;20071;-64
2022/07/26 09:58:05;;;;;;;1.98;1.02;;;;;;;22.16;53.30;101579.41;5095311;28;20060;-62
2022/07/26 10:00:34;;;;;;;0.60;0.60;;;;;;;22.17;53.24;101572.00;5098353;28;20052;-63
2022/07/26 10:03:02;;;;;;;1.38;0.80;;;;;;;22.17;53.19;101575.56;5098797;28;20048;-63
2022/07/26 10:05:31;;;;;;;2.30;0.80;;;;;;;22.17;53.29;101577.50;5102596;28;20056;-63
2022/07/26 10:08:00;;;;;;;1.27;0.80;;;;;;;22.18;53.53;101573.66;5106778;28;20044;-63
2022/07/26 10:10:31;;;;;;;4.53;1.20;;;;;;;22.17;53.24;101581.06;5099217;28;20509;-63
2022/07/26 10:13:01;;;;;;;1.45;0.85;;;;;;;22.15;53.54;101576.97;5104821;28;20040;-62
2022/07/26 10:15:40;;;;;;;1.60;0.88;;;;;;;22.14;53.48;101581.63;5108010;28;20044;-63
2022/07/26 10:18:10;;;;;;;5.55;0.88;;;;;;;22.15;53.47;101602.41;5092986;28;20045;-63
2022/07/26 10:20:47;;;;;;;3.20;1.13;;;;;;;22.09;53.41;101589.84;5106833;28;20078;-63
2022/07/26 10:23:34;;;;;;;3.78;1.20;;;;;;;22.16;53.64;101597.75;5104977;28;20184;-63
2022/07/26 10:26:03;;;;;;;1.95;1.10;;;;;;;22.16;53.46;101598.59;5102975;28;20071;-63
2022/07/26 10:28:33;;;;;;;3.78;1.10;;;;;;;22.17;53.59;101602.13;5100276;28;20535;-63
2022/07/26 10:31:30;;;;;;;3.50;1.20;;;;;;;22.16;53.28;101604.06;5107377;28;20044;-63
2022/07/26 10:34:00;;;;;;;5.28;1.35;;;;;;;22.05;53.29;101600.53;5098401;28;20068;-63
2022/07/26 10:36:36;;;;;;;5.80;2.00;;;;;;;22.12;54.55;101618.59;5097196;28;20063;-63
2022/07/26 10:39:12;;;;;;;5.60;1.63;;;;;;;22.02;55.04;101620.25;5101410;28;20063;-63
2022/07/26 10:41:43;;;;;;;10.45;1.90;;;;;;;22.04;56.02;101620.00;5104833;28;20108;-64
2022/07/26 10:44:25;;;;;;;3.03;1.23;;;;;;;22.02;56.25;101630.41;5101392;28;20044;-64
2022/07/26 10:47:04;;;;;;;4.38;1.55;;;;;;;21.99;56.63;101630.91;5099061;28;20044;-63
2022/07/26 10:49:35;;;;;;;7.10;1.38;;;;;;;21.96;56.37;101631.47;5106839;28;20086;-64
2022/07/26 10:52:08;;;;;;;3.42;2.03;;;;;;;21.93;56.98;101630.13;5101528;28;20059;-64
2022/07/26 10:55:18;;;;;;;5.93;1.48;;;;;;;21.94;57.30;101634.50;5099643;28;20055;-63
2022/07/26 10:57:48;;;;;;;2.75;1.10;;;;;;;21.93;56.74;101630.13;5096147;28;20048;-63
2022/07/26 11:00:22;;;;;;;5.32;1.33;;;;;;;21.93;57.37;101638.34;5105724;28;20055;-63
2022/07/26 11:02:56;;;;;;;2.58;1.40;;;;;;;21.94;56.99;101639.97;5103938;28;20083;-63
2022/07/26 11:05:29;;;;;;;4.50;1.80;;;;;;;21.94;57.04;101636.41;5097447;28;20109;-63
2022/07/26 11:08:09;;;;;;;2.03;1.40;;;;;;;21.92;57.08;101635.88;5104914;28;20051;-63
2022/07/26 11:10:39;;;;;;;3.53;1.15;;;;;;;21.96;57.13;101636.97;5105578;28;20083;-63
2022/07/26 11:13:16;;;;;;;2.33;1.20;;;;;;;21.97;57.27;101644.06;5103285;28;20072;-63
2022/07/26 11:15:46;;;;;;;3.13;1.17;;;;;;;21.96;57.14;101646.00;5104529;28;20072;-63
2022/07/26 11:18:22;;;;;;;3.35;1.20;;;;;;;21.95;56.79;101640.78;5094980;28;20044;-63
2022/07/26 11:20:52;;;;;;;5.78;1.10;;;;;;;21.94;56.72;101647.38;5107114;28;20048;-64
2022/07/26 11:23:32;;;;;;;2.72;1.02;;;;;;;21.93;56.56;101649.28;5099369;28;20139;-63
2022/07/26 11:26:11;;;;;;;2.85;1.10;;;;;;;21.94;56.18;101648.19;5103705;28;20040;-63
2022/07/26 11:28:57;;;;;;;3.25;1.52;;;;;;;21.94;56.10;101650.09;5103482;28;20051;-63
2022/07/26 11:31:33;;;;;;;4.82;1.80;;;;;;;21.95;56.01;101649.00;5105138;28;20056;-63
2022/07/26 11:34:24;;;;;;;3.70;1.33;;;;;;;21.90;55.86;101652.56;5102704;28;20058;-63
2022/07/26 11:36:53;;;;;;;3.80;1.20;;;;;;;21.95;55.82;101654.47;5096092;28;20052;-63
2022/07/26 11:39:22;;;;;;;1.67;0.95;;;;;;;21.92;55.69;101664.06;5106257;28;20048;-63
2022/07/26 11:41:52;;;;;;;3.17;0.98;;;;;;;21.92;55.46;101672.28;5100088;28;20448;-63